Bloomfield, South Dakota
Current Conditions -  °F | °C
As of 7:55 PM on Friday 31 Oct 2014 (Local Time) from KHON Reporting Station
Clear Clear  
Wind Chill: 25°   Ceiling: Unl
Heat Index: 33°   Visibility: 10mi
Dew Point: 17°   Wind: 9mph
Humidity: 52%   Direction: 150°SSE
Pressure: 30.37"   Gusts: NA
Location:  44.6749°N, 97.9169°W
Report Text: KHON 010055Z AUTO 15008KT 10SM CLR 01/M08 A3037 RMK AO2 SLP307 T00061083
Loading
Personal Weather Stations






























Interactive Weather Map
Tropical Storm Tracking
New forecast layout! Learn more

10-Day Weather Forecast

Advertisements
Track Severe Weather on mobile